createdAt,value
2017-11-20T00:04:55.873Z,3.30
2017-11-20T00:07:27.553Z,3.10
2017-11-20T00:12:35.294Z,3.58
2017-11-20T00:17:39.923Z,3.33
2017-11-20T00:20:20.233Z,3.70
2017-11-20T00:25:26.440Z,3.20
2017-11-20T00:27:57.084Z,2.65
2017-11-20T00:30:27.097Z,3.28
2017-11-20T00:33:04.659Z,2.47
2017-11-20T00:35:34.550Z,2.75
2017-11-20T00:40:51.103Z,2.60
2017-11-20T00:43:20.804Z,3.12
2017-11-20T00:45:50.620Z,2.97
2017-11-20T00:48:20.974Z,3.28
2017-11-20T00:50:50.668Z,3.00
2017-11-20T00:53:27.124Z,3.15
2017-11-20T00:58:33.147Z,2.85
2017-11-20T01:01:11.526Z,2.75
2017-11-20T01:03:52.724Z,3.25
2017-11-20T01:06:29.433Z,2.92
2017-11-20T01:09:01.215Z,3.00
2017-11-20T01:11:48.845Z,3.12
2017-11-20T01:17:00.237Z,2.90
2017-11-20T01:22:07.505Z,3.47
2017-11-20T01:29:59.110Z,3.40
2017-11-20T01:32:33.129Z,3.12
2017-11-20T01:35:05.950Z,3.20
2017-11-20T01:42:44.766Z,3.40
2017-11-20T01:45:15.286Z,3.30
2017-11-20T01:58:06.750Z,3.35
2017-11-20T02:00:37.293Z,3.40
2017-11-20T02:03:07.614Z,3.15
2017-11-20T02:05:37.487Z,2.80
2017-11-20T02:08:23.118Z,3.45
2017-11-20T02:10:54.488Z,3.53
2017-11-20T02:13:24.771Z,4.65
2017-11-20T02:15:54.999Z,3.90
2017-11-20T02:18:24.905Z,4.12
2017-11-20T02:20:55.680Z,3.70
2017-11-20T02:26:03.932Z,4.15
2017-11-20T02:28:34.200Z,4.07
2017-11-20T02:31:40.124Z,3.70
2017-11-20T02:42:05.823Z,4.85
2017-11-20T02:44:35.365Z,3.67
2017-11-20T02:47:07.137Z,4.05
2017-11-20T02:49:38.193Z,4.47
2017-11-20T02:55:14.698Z,4.15
2017-11-20T03:00:48.222Z,3.83
2017-11-20T03:08:43.014Z,3.60
2017-11-20T03:16:39.225Z,4.22
2017-11-20T03:21:54.025Z,3.45
2017-11-20T03:26:59.516Z,4.37
2017-11-20T03:29:40.973Z,3.65
2017-11-20T03:34:47.982Z,3.53
2017-11-20T03:42:29.845Z,3.10
2017-11-20T03:50:13.460Z,3.75
2017-11-20T03:52:51.254Z,3.65
2017-11-20T03:55:23.321Z,3.37
2017-11-20T03:57:53.609Z,3.67
2017-11-20T04:00:25.446Z,3.90
2017-11-20T04:02:59.518Z,4.05
2017-11-20T04:05:32.673Z,3.65
2017-11-20T04:13:14.619Z,3.30
2017-11-20T04:15:44.631Z,3.47
2017-11-20T04:18:14.519Z,3.58
2017-11-20T04:20:44.298Z,3.87
2017-11-20T04:23:14.039Z,3.40
2017-11-20T04:25:43.733Z,3.50
2017-11-20T04:28:13.642Z,4.05
2017-11-20T04:31:02.728Z,3.92
2017-11-20T04:33:34.286Z,3.37
2017-11-20T04:36:03.771Z,3.92
2017-11-20T04:38:33.462Z,3.30
2017-11-20T04:41:03.197Z,3.55
2017-11-20T04:43:32.916Z,4.55
2017-11-20T04:46:02.734Z,4.12
2017-11-20T04:48:32.444Z,3.95
2017-11-20T04:51:02.272Z,3.50
2017-11-20T04:53:31.968Z,4.47
2017-11-20T04:56:01.701Z,4.32
2017-11-20T04:58:31.400Z,3.35
2017-11-20T05:01:01.124Z,3.92
2017-11-20T05:03:34.617Z,3.70
2017-11-20T05:06:04.567Z,3.30
2017-11-20T05:08:34.851Z,4.55
2017-11-20T05:11:04.575Z,3.95
2017-11-20T05:13:38.914Z,5.18
2017-11-20T05:16:08.646Z,4.10
2017-11-20T05:18:38.391Z,4.60
2017-11-20T05:21:08.225Z,4.43
2017-11-20T05:23:37.934Z,3.97
2017-11-20T05:26:07.663Z,4.40
2017-11-20T05:28:37.475Z,5.53
2017-11-20T05:31:07.845Z,4.50
2017-11-20T05:33:38.060Z,4.40
2017-11-20T05:36:08.245Z,4.22
2017-11-20T05:38:45.649Z,5.05
2017-11-20T05:41:17.978Z,4.82
2017-11-20T05:43:47.702Z,4.40
2017-11-20T05:46:17.466Z,4.00
2017-11-20T05:48:57.202Z,5.20
2017-11-20T05:51:36.798Z,4.70
2017-11-20T05:54:07.890Z,5.07
2017-11-20T05:56:38.093Z,4.55
2017-11-20T05:59:07.318Z,4.68
2017-11-20T06:01:37.039Z,4.43
2017-11-20T06:04:06.843Z,4.03
2017-11-20T06:06:36.694Z,4.60
2017-11-20T06:09:06.506Z,4.03
2017-11-20T06:11:41.776Z,4.53
2017-11-20T06:14:15.793Z,4.00
2017-11-20T06:16:46.487Z,4.18
2017-11-20T06:19:16.887Z,3.72
2017-11-20T06:21:52.373Z,4.22
2017-11-20T06:24:22.537Z,3.80
2017-11-20T06:26:52.339Z,4.30
2017-11-20T06:29:22.724Z,4.03
2017-11-20T06:31:52.623Z,4.10
2017-11-20T06:34:22.440Z,4.20
2017-11-20T06:36:52.727Z,4.62
2017-11-20T06:45:15.692Z,4.60
2017-11-20T06:47:49.266Z,5.15
2017-11-20T06:53:19.827Z,5.32
2017-11-20T07:01:44.857Z,4.62
2017-11-20T07:04:14.643Z,4.50
2017-11-20T07:06:44.383Z,5.05
2017-11-20T07:09:14.114Z,4.47
2017-11-20T07:11:43.954Z,5.43
2017-11-20T07:14:13.606Z,4.80
2017-11-20T07:16:44.295Z,5.00
2017-11-20T07:19:14.239Z,3.55
2017-11-20T07:21:44.057Z,4.00
2017-11-20T07:24:13.884Z,4.10
2017-11-20T07:26:54.709Z,4.53
2017-11-20T07:29:35.493Z,4.22
2017-11-20T07:32:05.064Z,5.40
2017-11-20T07:34:46.510Z,4.32
2017-11-20T07:37:27.208Z,4.57
2017-11-20T07:40:08.272Z,4.70
2017-11-20T07:42:38.066Z,5.62
2017-11-20T07:45:07.918Z,5.78
2017-11-20T07:47:41.518Z,5.60
2017-11-20T07:50:11.319Z,4.60
2017-11-20T07:52:41.040Z,5.25
2017-11-20T07:55:11.328Z,5.22
2017-11-20T07:57:41.074Z,5.45
2017-11-20T08:00:10.597Z,6.05
2017-11-20T08:02:40.419Z,5.57
2017-11-20T08:05:10.329Z,5.90
2017-11-20T08:07:40.230Z,5.15
2017-11-20T08:10:10.057Z,5.03
2017-11-20T08:12:39.955Z,5.65
2017-11-20T08:15:09.685Z,5.30
2017-11-20T08:17:39.451Z,5.47
2017-11-20T08:20:09.176Z,5.97
2017-11-20T08:22:38.918Z,4.62
2017-11-20T08:25:08.758Z,4.47
2017-11-20T08:27:38.482Z,4.75
2017-11-20T08:30:08.334Z,5.12
2017-11-20T08:32:38.308Z,4.60
2017-11-20T08:35:08.626Z,5.68
2017-11-20T08:37:39.103Z,5.47
2017-11-20T08:40:09.062Z,4.72
2017-11-20T08:42:38.891Z,5.15
2017-11-20T08:45:08.773Z,5.90
2017-11-20T08:47:39.015Z,5.07
2017-11-20T08:50:09.327Z,5.05
2017-11-20T08:52:39.145Z,5.90
2017-11-20T08:55:08.900Z,5.75
2017-11-20T08:57:38.713Z,4.70
2017-11-20T09:00:08.454Z,4.93
2017-11-20T09:02:38.184Z,4.15
2017-11-20T09:05:07.962Z,5.00
2017-11-20T09:07:37.687Z,4.50
2017-11-20T09:10:07.444Z,4.60
2017-11-20T09:12:37.147Z,5.12
2017-11-20T09:15:06.853Z,5.68
2017-11-20T09:17:36.582Z,5.65
2017-11-20T09:20:06.310Z,4.60
2017-11-20T09:22:36.680Z,5.00
2017-11-20T09:25:06.490Z,4.82
2017-11-20T09:27:36.209Z,5.20
2017-11-20T09:30:06.182Z,5.43
2017-11-20T09:32:36.042Z,5.05
2017-11-20T09:35:05.750Z,5.55
2017-11-20T09:37:35.472Z,4.60
2017-11-20T09:40:05.263Z,4.43
2017-11-20T09:42:34.995Z,5.05
2017-11-20T09:45:06.024Z,4.87
2017-11-20T09:47:35.424Z,5.05
2017-11-20T09:50:04.827Z,4.45
2017-11-20T09:52:34.574Z,4.82
2017-11-20T09:55:03.993Z,5.15
2017-11-20T09:57:33.699Z,4.60
2017-11-20T10:00:03.409Z,5.28
2017-11-20T10:02:32.781Z,4.57
2017-11-20T10:05:02.195Z,5.80
2017-11-20T10:07:31.566Z,5.20
2017-11-20T10:10:01.284Z,4.87
2017-11-20T10:12:30.854Z,4.30
2017-11-20T10:15:00.294Z,4.80
2017-11-20T10:17:30.094Z,5.20
2017-11-20T10:19:59.464Z,4.55
2017-11-20T10:22:29.180Z,4.93
2017-11-20T10:24:58.722Z,4.85
2017-11-20T10:27:28.222Z,4.90
2017-11-20T10:29:57.863Z,5.00
2017-11-20T10:32:27.634Z,5.25
2017-11-20T10:34:57.016Z,5.75
2017-11-20T10:37:26.572Z,5.22
2017-11-20T10:39:56.549Z,4.65
2017-11-20T10:42:26.069Z,4.93
2017-11-20T10:44:55.466Z,4.65
2017-11-20T10:47:25.043Z,5.65
2017-11-20T10:49:54.787Z,5.25
2017-11-20T10:52:24.147Z,4.70
2017-11-20T10:54:53.572Z,4.95
2017-11-20T10:57:23.286Z,4.97
2017-11-20T10:59:53.037Z,4.75
2017-11-20T11:02:22.424Z,4.72
2017-11-20T11:04:51.824Z,4.43
2017-11-20T11:07:21.490Z,4.30
2017-11-20T11:09:50.937Z,5.35
2017-11-20T11:12:20.683Z,4.95
2017-11-20T11:14:50.652Z,4.30
2017-11-20T11:17:20.037Z,4.70
2017-11-20T11:19:49.463Z,4.90
2017-11-20T11:22:18.895Z,4.70
2017-11-20T11:24:48.594Z,5.10
2017-11-20T11:27:18.329Z,4.18
2017-11-20T11:29:47.795Z,3.90
2017-11-20T11:32:17.264Z,4.60
2017-11-20T11:34:50.496Z,3.87
2017-11-20T11:37:20.247Z,4.55
2017-11-20T11:39:49.675Z,4.78
2017-11-20T11:42:19.500Z,3.83
2017-11-20T11:44:49.228Z,4.65
2017-11-20T11:47:18.970Z,3.83
2017-11-20T11:49:48.699Z,5.05
2017-11-20T11:52:18.483Z,4.57
2017-11-20T11:54:47.877Z,3.65
2017-11-20T11:57:17.632Z,3.87
2017-11-20T11:59:47.084Z,4.30
2017-11-20T12:02:16.575Z,4.30
2017-11-20T12:04:46.244Z,4.80
2017-11-20T12:07:15.811Z,3.87
2017-11-20T12:09:45.208Z,3.72
2017-11-20T12:12:18.447Z,4.25
2017-11-20T12:14:47.660Z,4.30
2017-11-20T12:17:17.461Z,4.07
2017-11-20T12:19:46.868Z,3.87
2017-11-20T12:22:16.322Z,3.70
2017-11-20T12:24:45.719Z,4.00
2017-11-20T12:27:15.203Z,3.72
2017-11-20T12:29:44.850Z,3.10
2017-11-20T12:32:14.547Z,3.20
2017-11-20T12:34:44.429Z,5.07
2017-11-20T12:37:14.163Z,3.45
2017-11-20T12:39:44.284Z,3.58
2017-11-20T12:42:13.679Z,3.60
2017-11-20T12:44:43.630Z,3.30
2017-11-20T12:47:13.521Z,3.00
2017-11-20T12:49:42.916Z,3.12
2017-11-20T12:52:12.638Z,3.45
2017-11-20T12:54:42.062Z,3.10
2017-11-20T12:57:11.849Z,3.25
2017-11-20T12:59:41.067Z,3.22
2017-11-20T13:02:10.514Z,3.45
2017-11-20T13:04:40.295Z,3.00
2017-11-20T13:07:09.726Z,3.37
2017-11-20T13:09:39.131Z,3.60
2017-11-20T13:12:08.925Z,3.30
2017-11-20T13:14:38.345Z,3.50
2017-11-20T13:17:07.875Z,3.20
2017-11-20T13:19:37.409Z,4.47
2017-11-20T13:22:06.679Z,4.03
2017-11-20T13:24:36.106Z,4.10
2017-11-20T13:27:05.565Z,3.35
2017-11-20T13:29:34.987Z,3.62
2017-11-20T13:32:04.501Z,2.83
2017-11-20T13:34:33.728Z,3.45
2017-11-20T13:37:03.240Z,3.87
2017-11-20T13:39:32.504Z,4.00
2017-11-20T13:42:02.293Z,4.05
2017-11-20T13:44:31.816Z,3.62
2017-11-20T13:47:01.385Z,3.22
2017-11-20T13:49:30.547Z,3.67
2017-11-20T13:51:59.699Z,4.55
2017-11-20T13:54:28.839Z,3.00
2017-11-20T13:56:58.049Z,3.90
2017-11-20T13:59:27.623Z,3.00
2017-11-20T14:01:57.081Z,3.97
2017-11-20T14:04:26.483Z,3.72
2017-11-20T14:06:55.774Z,3.80
2017-11-20T14:09:24.958Z,4.10
2017-11-20T14:11:54.338Z,3.33
2017-11-20T14:14:23.615Z,3.90
2017-11-20T14:16:52.676Z,3.55
2017-11-20T14:19:21.899Z,3.35
2017-11-20T14:21:51.538Z,3.97
2017-11-20T14:24:24.820Z,4.50
2017-11-20T14:26:54.237Z,4.30
2017-11-20T14:29:24.448Z,4.03
2017-11-20T14:31:54.266Z,4.10
2017-11-20T14:34:23.557Z,3.37
2017-11-20T14:36:52.895Z,4.10
2017-11-20T14:39:22.615Z,4.25
2017-11-20T14:41:51.883Z,4.37
2017-11-20T14:44:21.138Z,4.10
2017-11-20T14:46:50.125Z,3.83
2017-11-20T14:49:19.518Z,3.37
2017-11-20T14:51:55.116Z,4.43
2017-11-20T14:54:24.132Z,3.97
2017-11-20T14:56:54.129Z,4.30
2017-11-20T14:59:24.334Z,4.62
2017-11-20T15:01:53.477Z,4.87
2017-11-20T15:04:22.740Z,3.75
2017-11-20T15:06:52.236Z,3.30
2017-11-20T15:09:21.482Z,3.90
2017-11-20T15:11:51.249Z,4.05
2017-11-20T15:14:20.466Z,3.95
2017-11-20T15:16:49.613Z,3.85
2017-11-20T15:19:19.054Z,3.22
2017-11-20T15:21:48.518Z,2.80
2017-11-20T15:24:18.201Z,3.03
2017-11-20T15:26:48.928Z,2.75
2017-11-20T15:29:18.307Z,2.10
2017-11-20T15:31:47.689Z,2.28
2017-11-20T15:34:17.182Z,1.80
2017-11-20T15:36:46.643Z,2.30
2017-11-20T15:39:15.869Z,1.58
2017-11-20T15:41:45.601Z,2.10
2017-11-20T15:44:15.410Z,2.42
2017-11-20T15:46:45.191Z,2.22
2017-11-20T15:49:14.753Z,2.42
2017-11-20T15:51:44.516Z,2.25
2017-11-20T15:54:14.089Z,1.98
2017-11-20T15:56:43.812Z,2.45
2017-11-20T15:59:13.543Z,2.33
2017-11-20T16:01:43.363Z,3.00
2017-11-20T16:04:17.365Z,2.87
2017-11-20T16:06:47.119Z,2.95
2017-11-20T16:09:16.920Z,2.10
2017-11-20T16:11:46.632Z,2.00
2017-11-20T16:14:16.370Z,2.30
2017-11-20T16:16:46.111Z,2.85
2017-11-20T16:19:15.863Z,2.83
2017-11-20T16:21:45.638Z,2.42
2017-11-20T16:24:15.363Z,2.40
2017-11-20T16:26:45.144Z,2.87
2017-11-20T16:29:14.878Z,2.58
2017-11-20T16:31:44.634Z,3.00
2017-11-20T16:34:14.386Z,2.10
2017-11-20T16:36:44.116Z,2.50
2017-11-20T16:39:13.853Z,3.15
2017-11-20T16:41:43.560Z,1.85
2017-11-20T16:44:13.372Z,2.05
2017-11-20T16:46:42.815Z,2.05
2017-11-20T16:49:12.459Z,1.90
2017-11-20T16:51:42.426Z,1.70
2017-11-20T16:54:12.184Z,1.90
2017-11-20T16:56:41.520Z,2.10
2017-11-20T16:59:11.124Z,2.20
2017-11-20T17:01:51.851Z,2.80
2017-11-20T17:04:21.409Z,2.60
2017-11-20T17:06:51.201Z,3.08
2017-11-20T17:09:20.921Z,2.92
2017-11-20T17:11:50.703Z,2.70
2017-11-20T17:14:20.444Z,2.95
2017-11-20T17:16:51.078Z,3.25
2017-11-20T17:19:20.860Z,2.70
2017-11-20T17:21:50.565Z,2.65
2017-11-20T17:24:20.304Z,3.25
2017-11-20T17:26:50.097Z,3.10
2017-11-20T17:29:19.803Z,3.30
2017-11-20T17:31:50.365Z,3.42
2017-11-20T17:34:22.421Z,3.35
2017-11-20T17:36:56.861Z,3.80
2017-11-20T17:39:27.839Z,3.33
2017-11-20T17:42:19.764Z,4.50
2017-11-20T17:44:50.649Z,4.20
2017-11-20T17:47:20.642Z,3.90
2017-11-20T17:49:55.370Z,4.55
2017-11-20T17:52:26.519Z,4.55
2017-11-20T17:54:56.326Z,4.40
2017-11-20T17:57:26.355Z,4.07
2017-11-20T17:59:58.145Z,4.03
2017-11-20T18:02:28.064Z,4.45
2017-11-20T18:04:57.976Z,4.45
2017-11-20T18:07:27.807Z,3.95
2017-11-20T18:09:58.085Z,4.53
2017-11-20T18:12:27.987Z,5.30
2017-11-20T18:17:33.593Z,4.50
2017-11-20T18:20:03.284Z,4.65
2017-11-20T18:22:33.406Z,5.55
2017-11-20T18:25:03.144Z,4.25
2017-11-20T18:27:33.115Z,4.43
2017-11-20T18:30:03.068Z,3.72
2017-11-20T18:32:33.998Z,5.20
2017-11-20T18:35:06.079Z,5.40
2017-11-20T18:37:40.246Z,4.82
2017-11-20T18:43:55.326Z,5.45
2017-11-20T18:46:25.324Z,5.40
2017-11-20T18:48:55.180Z,5.85
2017-11-20T18:51:25.063Z,5.30
2017-11-20T18:53:55.838Z,5.60
2017-11-20T18:56:25.668Z,5.82
2017-11-20T18:59:04.090Z,6.20
2017-11-20T19:02:07.117Z,6.82
2017-11-20T19:04:48.031Z,6.45
2017-11-20T19:07:28.872Z,6.18
2017-11-20T19:09:58.186Z,6.50
2017-11-20T19:12:28.063Z,6.50
2017-11-20T19:14:57.662Z,6.32
2017-11-20T19:17:27.692Z,7.10
2017-11-20T19:22:32.341Z,6.90
2017-11-20T19:25:03.637Z,6.70
2017-11-20T19:27:33.723Z,7.53
2017-11-20T19:30:04.238Z,6.75
2017-11-20T19:32:34.663Z,6.80
2017-11-20T19:35:05.880Z,7.72
2017-11-20T19:37:40.828Z,7.15
2017-11-20T19:40:11.310Z,7.03
2017-11-20T19:42:41.340Z,8.82
2017-11-20T19:45:12.332Z,7.87
2017-11-20T19:47:42.632Z,8.40
2017-11-20T19:50:23.584Z,7.55
2017-11-20T19:55:28.589Z,8.05
2017-11-20T19:57:58.449Z,7.43
2017-11-20T20:00:30.176Z,6.65
2017-11-20T20:03:00.262Z,8.32
2017-11-20T20:05:31.264Z,7.28
2017-11-20T20:08:01.957Z,7.93
2017-11-20T20:10:32.607Z,7.62
2017-11-20T20:13:03.611Z,6.90
2017-11-20T20:15:45.713Z,7.80
2017-11-20T20:18:16.113Z,8.10
2017-11-20T20:20:48.241Z,8.40
2017-11-20T20:25:53.926Z,7.32
2017-11-20T20:28:26.143Z,7.78
2017-11-20T20:30:57.007Z,7.32
2017-11-20T20:34:04.014Z,7.60
2017-11-20T20:36:35.895Z,7.28
2017-11-20T20:44:17.836Z,7.22
2017-11-20T20:46:48.636Z,8.15
2017-11-20T20:51:54.676Z,7.93
2017-11-20T20:54:26.823Z,7.80
2017-11-20T20:56:57.598Z,7.50
2017-11-20T20:59:28.172Z,6.80
2017-11-20T21:01:59.797Z,7.25
2017-11-20T21:04:30.771Z,7.70
2017-11-20T21:07:02.676Z,8.13
2017-11-20T21:12:21.392Z,6.15
2017-11-20T21:17:27.471Z,7.00
2017-11-20T21:23:15.985Z,8.18
2017-11-20T21:25:46.098Z,7.10
2017-11-20T21:31:00.459Z,6.80
2017-11-20T21:36:07.339Z,7.03
2017-11-20T21:38:37.213Z,8.00
2017-11-20T21:43:41.935Z,9.07
2017-11-20T21:46:12.726Z,8.55
2017-11-20T21:48:44.350Z,7.45
2017-11-20T21:51:18.794Z,6.82
2017-11-20T21:53:48.904Z,7.78
2017-11-20T21:56:19.395Z,8.60
2017-11-20T21:58:50.403Z,8.00
2017-11-20T22:01:23.466Z,7.32
2017-11-20T22:03:53.345Z,8.80
2017-11-20T22:06:23.175Z,7.82
2017-11-20T22:08:53.200Z,8.05
2017-11-20T22:11:23.383Z,8.07
2017-11-20T22:16:29.086Z,8.65
2017-11-20T22:19:01.288Z,7.10
2017-11-20T22:21:46.321Z,7.65
2017-11-20T22:24:19.094Z,6.93
2017-11-20T22:26:50.037Z,7.80
2017-11-20T22:34:35.365Z,7.28
2017-11-20T22:37:06.412Z,7.25
2017-11-20T22:39:37.252Z,8.73
2017-11-20T22:44:42.405Z,6.50
2017-11-20T22:47:12.907Z,6.93
2017-11-20T22:52:17.469Z,7.40
2017-11-20T22:54:47.444Z,7.70
2017-11-20T22:57:19.777Z,7.22
2017-11-20T22:59:50.272Z,7.20
2017-11-20T23:02:20.564Z,7.70
2017-11-20T23:04:50.699Z,8.10
2017-11-20T23:07:20.944Z,6.35
2017-11-20T23:09:51.379Z,8.45
2017-11-20T23:12:21.215Z,6.97
2017-11-20T23:14:50.792Z,6.45
2017-11-20T23:17:24.434Z,6.85
2017-11-20T23:19:58.090Z,5.30
2017-11-20T23:25:02.049Z,6.70
2017-11-20T23:27:32.517Z,6.65
2017-11-20T23:30:02.531Z,6.30
2017-11-20T23:32:33.311Z,6.93
2017-11-20T23:35:07.643Z,7.47
2017-11-20T23:37:41.872Z,6.65
2017-11-20T23:40:11.892Z,5.95
2017-11-20T23:42:42.474Z,6.78
2017-11-20T23:45:19.502Z,6.80
2017-11-20T23:47:49.652Z,7.57
2017-11-20T23:50:21.012Z,7.97
2017-11-20T23:52:51.015Z,8.27
2017-11-20T23:55:21.213Z,6.90
2017-11-20T23:57:51.113Z,6.75
